Time;durP1;ratioP1;P1;durP2;ratioP2;P2;SDS_P1;SDS_P2;PMS_P1;PMS_P2;Temp;Humidity;BMP_temperature;BMP_pressure;BME280_temperature;BME280_humidity;BME280_pressure;Samples;Min_cycle;Max_cycle;Signal;HPM_P1;HPM_P2
2022/07/08 00:00:49;;;;;;;;;6.00;6.00;;;;;22.57;39.63;99374.81;5075580;28;8871;-75
2022/07/08 00:03:18;;;;;;;;;6.20;6.20;;;;;22.62;39.48;99371.91;5092489;28;8844;-75
2022/07/08 00:05:48;;;;;;;;;6.00;4.80;;;;;22.69;39.52;99367.97;5092998;28;8993;-76
2022/07/08 00:08:18;;;;;;;;;7.40;6.20;;;;;22.77;39.42;99365.75;5094214;28;8897;-75
2022/07/08 00:10:47;;;;;;;;;8.40;8.40;;;;;22.79;38.76;99368.34;5128082;27;8970;-74
2022/07/08 00:13:16;;;;;;;;;6.40;6.40;;;;;22.89;39.12;99374.00;5095407;28;8882;-76
2022/07/08 00:15:44;;;;;;;;;5.80;5.80;;;;;22.92;39.02;99380.03;5097957;28;8927;-77
2022/07/08 00:18:13;;;;;;;;;7.80;7.80;;;;;22.92;39.16;99384.50;5077314;28;8990;-77
2022/07/08 00:20:41;;;;;;;;;6.40;5.80;;;;;22.98;39.20;99387.66;5125103;27;8932;-76
2022/07/08 00:23:11;;;;;;;;;8.00;5.80;;;;;22.97;39.22;99385.97;5092951;28;8850;-76
2022/07/08 00:25:40;;;;;;;;;6.40;6.40;;;;;22.96;39.32;99386.88;5091594;28;8972;-76
2022/07/08 00:28:08;;;;;;;;;5.40;5.00;;;;;22.90;39.40;99395.22;5091118;28;8882;-75
2022/07/08 00:30:37;;;;;;;;;6.40;5.60;;;;;22.89;39.36;99388.19;5092630;28;8855;-77
2022/07/08 00:33:05;;;;;;;;;6.60;6.60;;;;;22.77;39.64;99389.69;5092310;28;8882;-77
2022/07/08 00:35:34;;;;;;;;;9.00;6.00;;;;;22.85;39.43;99377.78;5073420;28;8851;-76
2022/07/08 00:38:02;;;;;;;;;7.40;7.00;;;;;22.86;39.56;99377.72;5093387;28;8816;-75
2022/07/08 00:40:34;;;;;;;;;4.60;4.40;;;;;22.95;39.43;99381.69;5093456;28;8870;-74
2022/07/08 00:43:02;;;;;;;;;5.80;5.80;;;;;22.92;39.44;99372.03;5091751;28;8863;-75
2022/07/08 00:45:32;;;;;;;;;6.80;4.80;;;;;22.78;39.63;99374.63;5091772;28;8843;-75
2022/07/08 00:48:00;;;;;;;;;5.80;5.80;;;;;22.80;39.55;99378.03;5092586;28;8840;-74
2022/07/08 00:50:29;;;;;;;;;4.20;4.00;;;;;22.77;39.49;99376.38;5091575;28;8855;-75
2022/07/08 00:52:58;;;;;;;;;6.60;5.20;;;;;22.57;39.82;99374.81;5073711;28;8912;-76
2022/07/08 00:55:27;;;;;;;;;6.20;6.00;;;;;22.70;39.63;99375.03;5074199;28;8860;-76
2022/07/08 00:57:57;;;;;;;;;6.00;3.80;;;;;22.80;39.18;99375.38;5091561;28;8835;-76
2022/07/08 01:00:26;;;;;;;;;4.40;4.40;;;;;22.81;39.33;99365.59;5093191;28;8836;-75
2022/07/08 01:02:54;;;;;;;;;5.40;5.40;;;;;22.68;39.47;99376.88;5091600;28;8855;-79
2022/07/08 01:05:23;;;;;;;;;3.20;3.20;;;;;22.63;39.67;99368.31;5073012;28;8910;-76
2022/07/08 01:07:52;;;;;;;;;5.40;5.40;;;;;22.58;39.77;99373.00;5090622;28;8872;-76
2022/07/08 01:10:20;;;;;;;;;4.00;4.00;;;;;22.50;39.65;99364.59;5091231;28;8840;-76
2022/07/08 01:12:49;;;;;;;;;4.60;4.00;;;;;22.65;39.62;99370.91;5091790;28;8869;-76
2022/07/08 01:15:20;;;;;;;;;4.00;4.00;;;;;22.71;39.54;99366.09;5092239;28;8851;-76
2022/07/08 01:17:50;;;;;;;;;4.20;4.20;;;;;22.82;39.35;99375.31;5090890;27;9601;-74
2022/07/08 01:20:18;;;;;;;;;4.20;4.20;;;;;22.44;40.16;99379.06;5091035;28;8856;-75
2022/07/08 01:22:48;;;;;;;;;4.20;4.20;;;;;21.83;41.45;99392.75;5090891;28;8866;-75
2022/07/08 01:25:17;;;;;;;;;3.20;3.00;;;;;21.49;42.14;99389.94;5090532;28;8926;-72
2022/07/08 01:27:46;;;;;;;;;2.00;2.00;;;;;21.22;42.61;99392.06;5090732;28;8831;-73
2022/07/08 01:30:14;;;;;;;;;5.60;4.00;;;;;20.89;43.50;99400.66;5090166;28;8882;-74
2022/07/08 01:32:44;;;;;;;;;4.00;4.00;;;;;20.50;44.52;99405.91;5090629;28;8951;-74
2022/07/08 01:35:13;;;;;;;;;4.00;4.00;;;;;20.38;45.15;99410.81;5123219;27;8848;-74
2022/07/08 01:37:44;;;;;;;;;5.00;5.00;;;;;20.16;46.09;99404.72;5089225;28;8868;-75
2022/07/08 01:40:14;;;;;;;;;5.80;5.00;;;;;19.84;46.67;99410.41;5071159;28;8852;-74
2022/07/08 01:42:43;;;;;;;;;4.00;4.00;;;;;19.69;47.66;99416.28;5090287;28;8844;-73
2022/07/08 01:45:11;;;;;;;;;6.00;5.40;;;;;19.42;47.81;99419.09;5090327;28;8832;-70
2022/07/08 01:47:40;;;;;;;;;4.80;4.80;;;;;19.46;48.07;99425.13;5087679;28;8848;-75
2022/07/08 01:50:09;;;;;;;;;5.00;4.00;;;;;19.46;48.17;99425.13;5088635;28;8856;-73
2022/07/08 01:52:37;;;;;;;;;4.00;3.60;;;;;19.51;48.21;99432.88;5088547;28;8855;-73
2022/07/08 01:55:07;;;;;;;;;4.00;4.00;;;;;19.73;47.55;99431.13;5089854;28;9594;-71
2022/07/08 01:57:37;;;;;;;;;3.00;3.00;;;;;19.85;48.19;99427.16;5122504;27;8856;-72
2022/07/08 02:00:07;;;;;;;;;7.00;5.00;;;;;19.98;48.17;99430.13;5088337;28;8856;-72
2022/07/08 02:02:44;;;;;;;;;4.80;4.80;;;;;19.72;49.12;99436.47;5088194;28;8933;-75
2022/07/08 02:05:13;;;;;;;;;4.60;4.60;;;;;19.76;49.09;99441.63;5071964;28;8877;-72
2022/07/08 02:07:43;;;;;;;;;6.80;6.40;;;;;19.92;48.70;99438.34;5088274;28;8858;-72
2022/07/08 02:10:11;;;;;;;;;4.00;4.00;;;;;19.79;49.07;99444.16;5087824;28;8853;-74
2022/07/08 02:12:40;;;;;;;;;6.60;6.00;;;;;19.63;49.55;99443.00;5087989;28;8882;-71
2022/07/08 02:15:10;;;;;;;;;5.20;5.20;;;;;19.48;49.64;99441.81;5089916;28;8889;-75
2022/07/08 02:17:40;;;;;;;;;4.40;4.40;;;;;19.64;49.50;99445.56;5089059;28;8828;-72
2022/07/08 02:20:11;;;;;;;;;5.20;4.80;;;;;19.72;49.46;99445.31;5090130;28;8855;-75
2022/07/08 02:22:42;;;;;;;;;3.40;3.40;;;;;19.61;49.54;99447.47;5088445;28;8897;-76
2022/07/08 02:25:11;;;;;;;;;5.80;3.40;;;;;19.76;49.02;99446.06;5089884;28;8851;-74
2022/07/08 02:27:41;;;;;;;;;4.00;4.00;;;;;19.80;48.99;99437.91;5089332;28;8893;-73
2022/07/08 02:30:11;;;;;;;;;5.40;5.40;;;;;19.54;49.78;99440.69;5053699;28;8874;-76
2022/07/08 02:32:39;;;;;;;;;5.80;5.80;;;;;19.48;50.15;99432.06;5089523;28;8835;-76
2022/07/08 02:35:09;;;;;;;;;5.20;5.20;;;;;19.44;50.45;99442.84;5088399;28;8848;-74
2022/07/08 02:37:37;;;;;;;;;7.20;7.00;;;;;19.48;50.55;99444.44;5089172;28;8855;-73
2022/07/08 02:40:07;;;;;;;;;5.80;5.80;;;;;19.38;51.05;99454.53;5087684;28;8892;-73
2022/07/08 02:42:35;;;;;;;;;7.00;6.00;;;;;19.48;51.02;99452.38;5086237;28;8958;-74
2022/07/08 02:45:07;;;;;;;;;7.40;6.40;;;;;19.81;50.54;99449.34;5086582;28;8954;-72
2022/07/08 02:47:36;;;;;;;;;6.60;6.60;;;;;19.95;50.48;99456.75;5086048;28;8862;-73
2022/07/08 02:50:06;;;;;;;;;7.40;7.40;;;;;19.79;51.29;99453.84;5086332;28;8825;-74
2022/07/08 02:52:35;;;;;;;;;9.00;8.00;;;;;19.72;51.73;99445.31;5086206;28;8968;-73
2022/07/08 02:55:05;;;;;;;;;6.60;6.60;;;;;19.73;51.75;99454.09;5086423;28;8954;-72
2022/07/08 02:57:34;;;;;;;;;7.00;7.00;;;;;19.85;51.61;99454.47;5086251;28;8869;-75
2022/07/08 03:00:03;;;;;;;;;7.20;7.20;;;;;19.97;51.54;99460.19;5069482;28;8850;-75
2022/07/08 03:02:33;;;;;;;;;9.60;7.80;;;;;19.52;53.27;99461.06;5069498;28;9004;-75
2022/07/08 03:05:02;;;;;;;;;5.60;5.00;;;;;19.72;52.61;99461.19;5069151;28;8810;-72
2022/07/08 03:07:30;;;;;;;;;6.40;6.40;;;;;19.81;52.51;99452.00;5069479;28;8885;-74
2022/07/08 03:09:59;;;;;;;;;6.20;6.20;;;;;19.79;53.03;99459.13;5052404;28;9004;-75
2022/07/08 03:12:28;;;;;;;;;7.00;6.00;;;;;19.78;52.92;99454.78;5086287;28;8866;-73
2022/07/08 03:14:57;;;;;;;;;5.80;5.80;;;;;19.60;53.63;99456.31;5088549;28;8978;-73
2022/07/08 03:17:25;;;;;;;;;10.40;10.00;;;;;19.93;52.51;99455.97;5087446;28;8867;-73
2022/07/08 03:19:55;;;;;;;;;12.80;11.80;;;;;19.94;52.78;99453.22;5088321;28;8847;-72
2022/07/08 03:22:24;;;;;;;;;6.00;6.00;;;;;19.79;53.57;99460.03;5104735;28;8859;-73
2022/07/08 03:24:52;;;;;;;;;6.60;6.60;;;;;19.35;55.32;99454.63;5040424;28;9671;-74
2022/07/08 03:27:21;;;;;;;;;9.40;9.40;;;;;19.04;56.74;99445.22;5091145;28;8828;-75
2022/07/08 03:29:49;;;;;;;;;8.00;8.00;;;;;19.15;56.53;99457.16;5092176;28;8843;-73
2022/07/08 03:32:18;;;;;;;;;6.80;6.80;;;;;19.13;56.95;99451.94;5089983;28;8906;-75
2022/07/08 03:34:47;;;;;;;;;8.80;8.80;;;;;18.78;58.29;99454.03;5091086;28;8866;-73
2022/07/08 03:37:16;;;;;;;;;6.60;6.60;;;;;18.88;58.13;99444.91;5092408;28;8989;-72
2022/07/08 03:39:45;;;;;;;;;7.20;7.20;;;;;18.58;59.37;99457.41;5092204;28;8944;-75
2022/07/08 03:42:13;;;;;;;;;6.00;6.00;;;;;18.71;59.33;99468.38;5074009;28;8844;-73
2022/07/08 03:44:41;;;;;;;;;6.20;6.20;;;;;18.76;59.02;99468.25;5092136;28;8956;-72
2022/07/08 03:47:10;;;;;;;;;9.40;8.00;;;;;19.07;58.47;99465.38;5092175;28;8968;-73
2022/07/08 03:49:38;;;;;;;;;9.00;8.40;;;;;19.15;58.23;99465.97;5073443;28;8875;-74
2022/07/08 03:52:07;;;;;;;;;6.00;6.00;;;;;18.77;60.04;99470.84;5124727;27;9598;-75
2022/07/08 03:54:37;;;;;;;;;8.40;8.40;;;;;18.80;60.09;99468.09;5072905;28;8859;-74
2022/07/08 03:57:06;;;;;;;;;9.40;9.00;;;;;18.46;61.49;99468.38;5093372;28;8840;-72
2022/07/08 03:59:34;;;;;;;;;7.80;7.40;;;;;18.64;61.22;99462.47;5095438;28;9617;-71
2022/07/08 04:02:03;;;;;;;;;7.40;7.40;;;;;18.61;61.67;99452.00;5091429;28;8975;-73
2022/07/08 04:04:32;;;;;;;;;5.20;5.20;;;;;18.48;62.35;99459.47;5124922;27;8832;-71
2022/07/08 04:07:00;;;;;;;;;8.20;7.20;;;;;18.53;62.11;99453.19;5090633;28;8903;-73
2022/07/08 04:09:29;;;;;;;;;8.80;7.60;;;;;18.46;62.74;99457.81;5091818;28;8970;-73
2022/07/08 04:11:59;;;;;;;;;8.60;8.60;;;;;18.45;63.33;99475.44;5091512;28;8906;-74
2022/07/08 04:14:28;;;;;;;;;9.40;9.00;;;;;18.31;64.04;99475.88;5091804;28;8940;-73
2022/07/08 04:16:56;;;;;;;;;13.40;13.40;;;;;18.34;64.57;99474.09;5073795;28;8844;-78
2022/07/08 04:19:25;;;;;;;;;11.20;9.40;;;;;18.43;64.44;99472.00;5089046;28;8946;-73
2022/07/08 04:21:53;;;;;;;;;9.00;9.00;;;;;18.49;64.33;99470.94;5055462;28;8992;-74
2022/07/08 04:24:22;;;;;;;;;6.60;6.60;;;;;18.15;65.40;99463.25;5088748;28;9664;-77
2022/07/08 04:26:51;;;;;;;;;7.40;7.00;;;;;17.96;66.80;99460.34;5088878;28;8927;-75
2022/07/08 04:29:22;;;;;;;;;10.40;10.40;;;;;18.04;66.95;99463.63;5072053;28;8957;-71
2022/07/08 04:31:51;;;;;;;;;28.00;25.20;;;;;17.96;67.35;99460.34;5039501;28;8920;-75
2022/07/08 04:34:19;;;;;;;;;7.20;7.20;;;;;17.96;67.94;99455.97;5088344;28;8826;-76
2022/07/08 04:36:48;;;;;;;;;12.40;11.60;;;;;17.93;68.19;99467.44;5071591;28;8886;-73
2022/07/08 04:39:16;;;;;;;;;9.80;9.80;;;;;17.88;68.63;99471.16;5055193;28;8984;-73
2022/07/08 04:41:45;;;;;;;;;11.40;11.00;;;;;18.01;68.05;99480.41;5088616;28;8869;-73
2022/07/08 04:44:13;;;;;;;;;9.80;9.80;;;;;17.94;68.81;99481.53;5088998;28;8842;-76
2022/07/08 04:46:43;;;;;;;;;15.80;11.00;;;;;18.09;68.11;99488.94;5039710;28;8980;-75
2022/07/08 04:49:13;;;;;;;;;10.00;9.80;;;;;17.86;69.50;99480.88;5088179;28;9000;-73
2022/07/08 04:51:41;;;;;;;;;13.00;10.40;;;;;17.80;69.86;99474.00;5054546;28;9012;-75
2022/07/08 04:54:10;;;;;;;;;9.40;9.00;;;;;17.68;70.09;99477.03;5050705;28;8863;-76
2022/07/08 04:56:39;;;;;;;;;10.80;10.60;;;;;17.70;70.79;99483.97;5050999;28;8852;-70
2022/07/08 04:59:08;;;;;;;;;11.40;11.40;;;;;17.73;70.50;99485.63;5050689;28;8848;-74
2022/07/08 05:01:36;;;;;;;;;10.80;10.80;;;;;17.59;70.95;99493.13;5043907;28;8918;-70
2022/07/08 05:04:07;;;;;;;;;11.60;11.60;;;;;17.66;70.65;99489.41;5044079;28;8856;-76
2022/07/08 05:06:35;;;;;;;;;13.40;12.60;;;;;17.74;70.72;99503.22;5011174;28;8860;-72
2022/07/08 05:09:04;;;;;;;;;11.80;10.40;;;;;17.76;71.04;99506.66;5027597;28;8927;-71
2022/07/08 05:11:32;;;;;;;;;13.40;12.00;;;;;17.88;70.74;99497.53;5027514;28;8840;-73
2022/07/08 05:14:01;;;;;;;;;9.60;9.60;;;;;17.86;70.64;99502.00;5027298;28;8856;-74
2022/07/08 05:16:30;;;;;;;;;10.20;10.20;;;;;18.02;70.90;99507.66;5027390;28;8856;-70
2022/07/08 05:19:00;;;;;;;;;12.00;10.00;;;;;18.05;70.78;99510.19;5027332;28;9614;-75
2022/07/08 05:21:31;;;;;;;;;16.80;16.40;;;;;17.95;71.58;99503.50;5010685;28;9559;-71
2022/07/08 05:23:59;;;;;;;;;16.00;15.40;;;;;17.97;71.45;99501.66;5027055;28;8871;-72
2022/07/08 05:26:28;;;;;;;;;13.60;12.20;;;;;17.71;72.74;99509.44;5064960;28;8970;-74
2022/07/08 05:28:56;;;;;;;;;13.60;13.60;;;;;17.80;72.49;99510.94;5030868;28;8854;-74
2022/07/08 05:31:25;;;;;;;;;19.40;17.40;;;;;17.94;72.30;99505.28;5014098;28;8846;-75
2022/07/08 05:33:54;;;;;;;;;11.40;10.20;;;;;17.77;73.30;99520.69;5065772;28;8962;-74
2022/07/08 05:36:23;;;;;;;;;15.40;15.00;;;;;17.90;72.89;99515.06;5033730;28;8871;-74
2022/07/08 05:38:53;;;;;;;;;13.80;13.80;;;;;18.16;72.17;99515.13;5067314;28;8852;-75
2022/07/08 05:41:21;;;;;;;;;12.20;12.20;;;;;18.02;72.77;99513.81;5050182;28;9005;-74
2022/07/08 05:43:50;;;;;;;;;13.80;13.40;;;;;18.03;73.42;99512.88;5033823;28;8988;-75
2022/07/08 05:46:19;;;;;;;;;15.00;14.00;;;;;17.97;74.12;99512.22;5010293;28;8833;-72
2022/07/08 05:48:47;;;;;;;;;13.40;12.80;;;;;18.02;74.19;99515.59;5028025;28;8856;-75
2022/07/08 05:51:16;;;;;;;;;18.00;17.60;;;;;18.08;74.31;99512.75;5027051;28;9016;-71
2022/07/08 05:53:47;;;;;;;;;15.80;14.40;;;;;18.20;72.82;99522.03;5026803;28;8897;-75
2022/07/08 05:56:17;;;;;;;;;16.00;16.00;;;;;18.09;73.82;99507.41;5026542;28;8864;-73
2022/07/08 05:58:45;;;;;;;;;14.00;14.00;;;;;17.98;73.11;99509.53;5026665;28;8864;-75
2022/07/08 06:01:14;;;;;;;;;15.40;15.00;;;;;18.30;72.80;99505.84;5064578;28;9653;-75
2022/07/08 06:03:43;;;;;;;;;15.00;14.40;;;;;18.53;71.55;99504.22;5049876;28;8872;-74
2022/07/08 06:06:12;;;;;;;;;15.80;15.80;;;;;18.32;72.31;99511.09;5066159;28;8953;-74
2022/07/08 06:08:40;;;;;;;;;12.20;12.20;;;;;18.22;73.34;99507.00;5066351;28;8840;-74
2022/07/08 06:11:09;;;;;;;;;14.00;14.00;;;;;18.16;73.83;99509.84;5066582;28;8989;-75
2022/07/08 06:13:39;;;;;;;;;17.00;16.00;;;;;18.29;73.77;99512.03;5066264;28;8903;-73
2022/07/08 06:16:13;;;;;;;;;14.00;14.00;;;;;18.39;73.32;99509.09;5049572;28;8840;-73
2022/07/08 06:18:41;;;;;;;;;24.00;21.80;;;;;18.46;73.34;99506.19;5087153;28;8868;-73
2022/07/08 06:21:10;;;;;;;;;17.80;15.80;;;;;18.54;73.25;99498.03;5091007;28;9669;-75
2022/07/08 06:23:39;;;;;;;;;18.00;17.00;;;;;18.56;72.91;99496.19;5087926;28;8871;-72
2022/07/08 06:26:07;;;;;;;;;19.80;17.80;;;;;18.73;71.82;99500.03;5087258;28;8932;-72
2022/07/08 06:28:36;;;;;;;;;18.60;17.60;;;;;18.62;72.54;99497.75;5088814;28;8907;-73
2022/07/08 06:31:06;;;;;;;;;17.80;17.00;;;;;18.55;73.11;99497.13;5087666;28;8863;-75
2022/07/08 06:33:35;;;;;;;;;13.00;13.00;;;;;18.62;73.45;99503.03;5088596;28;8966;-75
2022/07/08 06:36:04;;;;;;;;;18.20;18.20;;;;;18.75;72.57;99503.47;5087590;28;9021;-73
2022/07/08 06:38:33;;;;;;;;;16.80;16.80;;;;;18.58;72.25;99504.06;5069627;28;8855;-75
2022/07/08 06:41:01;;;;;;;;;18.40;18.40;;;;;18.51;73.07;99492.84;5088962;28;8859;-73
2022/07/08 06:43:30;;;;;;;;;15.20;14.40;;;;;18.45;72.14;99490.41;5070168;28;8856;-73
2022/07/08 06:46:00;;;;;;;;;18.00;18.00;;;;;18.52;72.15;99491.94;5087335;28;8863;-71
2022/07/08 06:48:29;;;;;;;;;14.20;14.20;;;;;18.84;70.71;99488.19;5069467;28;8863;-70
2022/07/08 06:50:59;;;;;;;;;19.00;19.00;;;;;18.93;70.17;99481.72;5087292;28;8844;-70
2022/07/08 06:54:34;;;;;;;;;17.00;16.60;;;;;18.84;70.18;99479.41;5088431;28;8874;-73
2022/07/08 06:56:17;;;;;;;;;13.20;13.20;;;;;19.17;69.57;99481.75;5088419;28;8843;-71
2022/07/08 06:58:45;;;;;;;;;19.40;19.00;;;;;19.38;68.13;99480.13;5057097;28;8890;-75
2022/07/08 07:01:13;;;;;;;;;21.00;21.00;;;;;19.31;68.22;99481.25;5091371;28;8848;-72
2022/07/08 07:03:44;;;;;;;;;19.20;19.20;;;;;19.36;67.41;99484.59;5040317;28;8844;-75
2022/07/08 07:06:13;;;;;;;;;21.40;20.60;;;;;19.45;67.01;99490.41;5091473;28;8832;-72
2022/07/08 07:08:42;;;;;;;;;23.20;23.00;;;;;19.23;66.89;99494.75;5125153;27;8858;-76
2022/07/08 07:11:10;;;;;;;;;20.20;19.80;;;;;19.12;67.36;99483.72;5092424;28;9687;-73
2022/07/08 07:13:39;;;;;;;;;23.80;22.00;;;;;19.16;68.18;99494.09;5092229;28;8990;-72
2022/07/08 07:16:08;;;;;;;;;19.20;17.60;;;;;19.38;66.65;99496.84;5092427;28;8835;-77
2022/07/08 07:18:37;;;;;;;;;16.20;14.40;;;;;19.43;66.42;99505.47;5089604;28;9640;-73
2022/07/08 07:21:07;;;;;;;;;17.20;17.20;;;;;19.15;67.38;99505.63;5089955;28;8936;-75
2022/07/08 07:23:35;;;;;;;;;18.80;18.40;;;;;19.20;67.55;99511.56;5089658;28;8990;-73
2022/07/08 07:26:04;;;;;;;;;22.00;20.20;;;;;19.39;67.06;99509.13;5089620;28;8829;-74
2022/07/08 07:28:33;;;;;;;;;18.20;16.80;;;;;19.34;67.73;99520.78;5089547;28;8841;-74
2022/07/08 07:31:01;;;;;;;;;19.20;16.20;;;;;19.21;67.81;99526.53;5089405;28;8867;-72
2022/07/08 07:33:30;;;;;;;;;20.80;19.20;;;;;19.35;67.42;99526.03;5072819;28;8872;-76
2022/07/08 07:35:59;;;;;;;;;19.40;18.20;;;;;19.46;66.75;99536.22;5072309;28;8984;-74
2022/07/08 07:38:29;;;;;;;;;19.80;18.60;;;;;19.42;66.97;99531.97;5089796;28;8860;-74
2022/07/08 07:40:58;;;;;;;;;20.40;19.20;;;;;19.50;66.71;99532.53;5091971;28;8830;-76
2022/07/08 07:43:27;;;;;;;;;20.40;18.60;;;;;19.55;66.16;99541.16;5090336;28;8892;-74
2022/07/08 07:45:55;;;;;;;;;21.20;19.80;;;;;19.72;65.38;99539.66;5039614;28;8938;-72
2022/07/08 07:48:24;;;;;;;;;22.20;20.00;;;;;19.78;64.70;99537.66;5089331;28;8829;-75
2022/07/08 07:50:54;;;;;;;;;15.40;15.40;;;;;19.85;64.79;99535.66;5089168;28;8907;-72
2022/07/08 07:53:23;;;;;;;;;18.80;17.60;;;;;20.15;64.14;99525.66;5088993;28;8849;-72
2022/07/08 07:55:53;;;;;;;;;19.20;19.00;;;;;20.60;62.55;99527.38;5089416;28;8893;-70
2022/07/08 07:58:22;;;;;;;;;19.00;18.20;;;;;20.35;63.20;99524.81;5091556;28;8844;-76
2022/07/08 08:00:50;;;;;;;;;20.40;19.80;;;;;20.19;63.45;99529.03;5073256;28;8990;-75
2022/07/08 08:03:19;;;;;;;;;17.20;17.20;;;;;20.34;63.00;99527.53;5090229;28;8939;-75
2022/07/08 08:05:48;;;;;;;;;17.20;15.60;;;;;20.67;61.48;99525.31;5091638;28;8890;-75
2022/07/08 08:08:16;;;;;;;;;17.40;17.40;;;;;21.02;60.70;99515.84;5123345;27;8840;-76
2022/07/08 08:10:45;;;;;;;;;17.20;16.00;;;;;21.41;59.90;99519.41;5090252;28;8862;-74
2022/07/08 08:13:15;;;;;;;;;18.80;18.00;;;;;21.90;58.68;99501.22;5072455;28;8852;-75
2022/07/08 08:15:43;;;;;;;;;17.20;16.40;;;;;21.94;57.89;99513.41;5091690;28;8860;-75
2022/07/08 08:18:12;;;;;;;;;18.20;17.60;;;;;22.03;57.26;99516.56;5090428;28;8869;-77
2022/07/08 08:20:42;;;;;;;;;18.40;17.40;;;;;21.97;57.57;99523.88;5091518;28;8970;-75
2022/07/08 08:23:11;;;;;;;;;17.80;16.60;;;;;22.10;55.87;99520.66;5091013;28;8843;-72
2022/07/08 08:25:50;;;;;;;;;20.00;19.60;;;;;21.82;57.38;99531.75;5088885;28;8870;-77
2022/07/08 08:28:20;;;;;;;;;17.60;17.60;;;;;21.76;57.56;99520.47;5073070;28;8859;-75
2022/07/08 08:30:49;;;;;;;;;18.60;16.20;;;;;21.41;58.27;99522.06;5090739;28;9666;-75
2022/07/08 08:33:17;;;;;;;;;15.20;13.80;;;;;21.07;59.47;99533.31;5090776;28;8855;-75
2022/07/08 08:35:46;;;;;;;;;17.60;17.60;;;;;20.86;60.39;99530.66;5091031;28;9721;-77
2022/07/08 08:38:15;;;;;;;;;15.80;15.20;;;;;20.97;59.73;99552.28;5072632;28;9629;-74
2022/07/08 08:40:47;;;;;;;;;14.00;12.80;;;;;20.70;60.45;99545.50;5054652;28;8983;-74
2022/07/08 08:43:15;;;;;;;;;15.00;14.20;;;;;21.11;59.52;99548.16;5054585;28;8965;-74
2022/07/08 08:45:47;;;;;;;;;15.20;14.00;;;;;21.06;59.19;99548.38;5071142;28;8849;-74
2022/07/08 08:48:18;;;;;;;;;16.40;15.40;;;;;21.28;58.97;99544.78;5071303;28;8969;-74
2022/07/08 08:50:55;;;;;;;;;15.60;15.20;;;;;21.54;57.53;99541.81;5054681;28;8945;-75
2022/07/08 08:53:27;;;;;;;;;16.80;16.40;;;;;21.63;58.64;99548.50;5088407;28;8875;-76
2022/07/08 08:55:59;;;;;;;;;18.80;16.80;;;;;21.61;59.22;99545.06;5071452;28;8883;-73
2022/07/08 08:58:28;;;;;;;;;16.80;16.80;;;;;21.54;60.46;99552.44;5087979;28;8866;-73
2022/07/08 09:00:58;;;;;;;;;16.80;15.20;;;;;21.43;60.15;99555.53;5071069;28;8849;-73
2022/07/08 09:03:27;;;;;;;;;19.00;18.00;;;;;21.26;59.42;99557.25;5070782;28;8942;-79
2022/07/08 09:05:56;;;;;;;;;15.20;15.00;;;;;21.20;59.51;99553.06;5071157;28;8879;-74
2022/07/08 09:08:25;;;;;;;;;18.00;16.20;;;;;21.59;58.34;99550.44;5087797;28;8854;-74
2022/07/08 09:10:53;;;;;;;;;15.40;15.40;;;;;21.59;58.54;99550.44;5104910;28;8869;-76
2022/07/08 09:13:23;;;;;;;;;17.00;17.00;;;;;21.39;59.10;99556.63;5089901;28;9613;-76
2022/07/08 09:15:57;;;;;;;;;14.00;13.60;;;;;21.76;58.19;99557.63;5072198;28;8868;-77
2022/07/08 09:18:30;;;;;;;;;14.60;14.60;;;;;21.82;58.62;99553.84;5088629;28;8839;-75
2022/07/08 09:21:00;;;;;;;;;17.80;17.80;;;;;21.46;59.08;99561.69;5089106;28;8855;-76
2022/07/08 09:23:30;;;;;;;;;11.60;11.60;;;;;21.19;59.46;99567.25;5088531;28;8863;-73
2022/07/08 09:26:02;;;;;;;;;14.00;14.00;;;;;21.14;59.67;99562.16;5088687;28;8836;-76
2022/07/08 09:28:33;;;;;;;;;19.20;19.20;;;;;20.95;60.15;99563.88;5088105;28;9592;-76
2022/07/08 09:31:04;;;;;;;;;15.60;15.60;;;;;21.17;60.63;99561.16;5089647;28;8923;-72
2022/07/08 09:33:35;;;;;;;;;16.40;16.40;;;;;21.11;60.06;99574.69;5088261;28;8955;-72
2022/07/08 09:36:05;;;;;;;;;16.80;16.80;;;;;21.20;59.89;99563.69;5086976;28;8878;-74
2022/07/08 09:38:36;;;;;;;;;24.40;23.60;;;;;21.39;60.01;99569.88;5089343;28;8863;-75
2022/07/08 09:41:05;;;;;;;;;15.00;15.00;;;;;21.43;58.57;99575.91;5089677;28;8856;-75
2022/07/08 09:43:43;;;;;;;;;17.20;16.20;;;;;21.03;60.35;99573.22;5053942;28;9655;-74
2022/07/08 09:46:11;;;;;;;;;15.60;15.60;;;;;21.42;59.59;99569.75;5089465;28;8983;-73
2022/07/08 09:48:42;;;;;;;;;16.20;16.20;;;;;21.73;58.64;99563.06;5087909;28;9002;-71
2022/07/08 09:51:10;;;;;;;;;14.40;14.40;;;;;21.50;57.35;99572.09;5089430;28;8894;-75
2022/07/08 09:53:41;;;;;;;;;16.40;16.40;;;;;21.39;59.08;99558.41;5086718;28;8843;-74
2022/07/08 09:56:10;;;;;;;;;16.60;16.60;;;;;21.61;59.56;99561.84;5088130;28;8839;-74
2022/07/08 09:58:39;;;;;;;;;18.60;17.60;;;;;22.04;58.54;99559.00;5071035;28;8852;-73
2022/07/08 10:01:08;;;;;;;;;19.00;19.00;;;;;21.97;58.53;99557.56;5089346;28;8855;-74
2022/07/08 10:03:37;;;;;;;;;21.40;20.40;;;;;21.59;58.48;99560.22;5106627;28;8870;-77
2022/07/08 10:06:07;;;;;;;;;23.00;23.00;;;;;21.62;58.65;99568.00;5106449;28;8868;-75
2022/07/08 10:08:38;;;;;;;;;20.60;19.00;;;;;21.95;57.71;99556.78;5089371;28;9669;-77
2022/07/08 10:11:08;;;;;;;;;21.40;19.60;;;;;21.67;58.94;99567.81;5106441;28;8836;-77
2022/07/08 10:13:38;;;;;;;;;19.40;18.80;;;;;21.42;60.23;99566.25;5106454;28;9608;-74
2022/07/08 10:16:10;;;;;;;;;17.80;17.80;;;;;21.23;61.18;99559.09;5106402;28;8886;-73
2022/07/08 10:18:42;;;;;;;;;23.60;21.60;;;;;21.49;60.92;99551.78;5089434;28;8855;-75
2022/07/08 10:21:17;;;;;;;;;21.00;21.00;;;;;21.29;61.32;99549.16;5089435;28;8861;-75
2022/07/08 10:23:49;;;;;;;;;21.00;20.00;;;;;21.70;60.75;99554.38;5089540;28;9009;-77
2022/07/08 10:26:21;;;;;;;;;21.80;19.40;;;;;21.80;59.36;99556.56;5088805;28;8851;-72
2022/07/08 10:29:01;;;;;;;;;20.60;19.80;;;;;22.03;58.71;99553.75;5106032;28;8851;-74
2022/07/08 10:31:30;;;;;;;;;24.20;21.80;;;;;22.04;58.82;99555.47;5105354;28;8848;-75
2022/07/08 10:34:02;;;;;;;;;22.20;21.80;;;;;21.98;58.14;99553.97;5102869;28;8928;-73
2022/07/08 10:36:44;;;;;;;;;21.40;21.40;;;;;22.05;58.81;99554.53;5088965;28;8872;-75
2022/07/08 10:39:13;;;;;;;;;20.80;20.40;;;;;22.01;59.06;99551.16;5088324;28;8852;-74
2022/07/08 10:41:57;;;;;;;;;23.20;22.40;;;;;21.73;59.06;99554.25;5088464;28;8869;-74
2022/07/08 10:44:52;;;;;;;;;22.60;21.00;;;;;21.47;60.76;99539.53;5088330;28;8970;-73
2022/07/08 10:47:28;;;;;;;;;18.20;17.20;;;;;21.41;60.75;99538.81;5088403;28;8851;-77
2022/07/08 10:50:06;;;;;;;;;22.40;21.00;;;;;21.41;60.26;99540.63;5069369;28;8867;-76
2022/07/08 10:52:41;;;;;;;;;20.60;20.60;;;;;21.39;60.60;99555.75;5070249;28;8862;-72
2022/07/08 10:55:12;;;;;;;;;21.60;21.00;;;;;21.47;60.15;99550.13;5070299;28;8844;-73
2022/07/08 10:57:54;;;;;;;;;25.20;24.40;;;;;21.08;61.35;99537.69;5088080;28;8848;-77
2022/07/08 11:00:24;;;;;;;;;22.00;20.60;;;;;21.29;62.08;99541.19;5088607;28;8855;-75
2022/07/08 11:02:53;;;;;;;;;20.20;19.40;;;;;21.09;61.64;99550.88;5086579;28;8866;-72
2022/07/08 11:05:34;;;;;;;;;21.00;19.80;;;;;20.96;62.00;99550.56;5120991;27;8860;-74
2022/07/08 11:08:28;;;;;;;;;21.00;21.00;;;;;21.41;60.90;99548.59;5086582;28;8855;-73
2022/07/08 11:10:56;;;;;;;;;23.60;21.20;;;;;21.47;60.65;99536.88;5088111;28;9624;-74
2022/07/08 11:13:26;;;;;;;;;20.00;20.00;;;;;21.82;59.56;99543.22;5086239;28;8952;-75
2022/07/08 11:15:55;;;;;;;;;21.60;21.60;;;;;21.99;59.52;99537.09;5088065;28;8870;-73
2022/07/08 11:18:26;;;;;;;;;24.40;23.40;;;;;21.82;59.70;99529.09;5088241;28;8871;-73
2022/07/08 11:20:59;;;;;;;;;18.40;18.00;;;;;22.06;59.30;99519.94;5088088;28;8846;-75
2022/07/08 11:23:29;;;;;;;;;17.80;17.80;;;;;21.99;59.35;99515.84;5071777;28;8894;-74
2022/07/08 11:26:00;;;;;;;;;22.80;22.80;;;;;21.98;59.14;99515.00;5088179;28;8859;-76
2022/07/08 11:28:28;;;;;;;;;22.00;21.00;;;;;22.26;58.53;99515.47;5088161;28;8843;-74
2022/07/08 11:30:57;;;;;;;;;20.80;20.80;;;;;22.52;57.09;99527.47;5088028;28;8866;-75
2022/07/08 11:33:39;;;;;;;;;23.20;20.80;;;;;22.37;56.38;99513.16;5088070;28;8874;-73
2022/07/08 11:36:16;;;;;;;;;19.60;19.00;;;;;22.54;57.02;99504.34;5087852;28;8859;-71
2022/07/08 11:38:47;;;;;;;;;21.80;21.60;;;;;22.18;57.96;99502.53;5069278;28;9738;-75
2022/07/08 11:41:17;;;;;;;;;22.00;21.00;;;;;22.13;58.76;99497.44;5087779;28;8883;-74
2022/07/08 11:43:46;;;;;;;;;24.00;22.00;;;;;22.18;58.62;99503.41;5089836;28;8844;-72